Time;durP1;ratioP1;P1;durP2;ratioP2;P2;SDS_P1;SDS_P2;PMS_P1;PMS_P2;Temp;Humidity;BMP_temperature;BMP_pressure;BME280_temperature;BME280_humidity;BME280_pressure;Samples;Min_cycle;Max_cycle;Signal;HPM_P1;HPM_P2
2022/08/23 00:01:24;;;;;;;6.10;4.00;;;;;;;17.93;63.92;99380.84;5049521;28;20049;-68
2022/08/23 00:03:52;;;;;;;6.97;4.15;;;;;;;17.89;63.83;99382.91;5049834;28;20135;-67
2022/08/23 00:06:18;;;;;;;9.38;4.47;;;;;;;17.88;63.74;99375.91;5048738;28;20056;-67
2022/08/23 00:08:47;;;;;;;10.73;4.63;;;;;;;17.85;63.96;99370.84;5049586;28;20048;-68
2022/08/23 00:11:25;;;;;;;7.82;4.38;;;;;;;17.83;63.72;99371.97;5049521;28;20221;-68
2022/08/23 00:13:51;;;;;;;7.57;4.15;;;;;;;17.76;64.05;99366.25;5049501;28;20059;-68
2022/08/23 00:16:18;;;;;;;8.57;4.90;;;;;;;17.73;64.24;99364.72;5049675;28;20683;-69
2022/08/23 00:18:44;;;;;;;8.13;3.65;;;;;;;17.70;64.34;99356.97;5051084;28;20071;-68
2022/08/23 00:21:11;;;;;;;6.25;4.07;;;;;;;17.68;64.31;99353.59;5050771;28;20055;-69
2022/08/23 00:23:38;;;;;;;8.75;3.70;;;;;;;17.60;64.78;99356.91;5050834;28;20044;-69
2022/08/23 00:26:06;;;;;;;6.53;3.53;;;;;;;17.59;65.03;99357.03;5049197;28;20564;-68
2022/08/23 00:28:33;;;;;;;10.25;4.55;;;;;;;17.59;64.93;99357.88;5050155;28;20053;-69
2022/08/23 00:30:59;;;;;;;4.45;3.40;;;;;;;17.57;64.93;99359.84;5052912;28;20045;-66
2022/08/23 00:33:26;;;;;;;6.95;3.58;;;;;;;17.54;65.05;99353.91;5050324;28;20511;-69
2022/08/23 00:35:52;;;;;;;13.38;3.97;;;;;;;17.51;65.13;99356.84;5049119;28;20059;-68
2022/08/23 00:38:19;;;;;;;7.70;3.67;;;;;;;17.48;65.61;99357.13;5048951;28;20056;-68
2022/08/23 00:40:49;;;;;;;7.30;4.50;;;;;;;17.46;65.52;99353.75;5049249;28;20488;-68
2022/08/23 00:49:17;;;;;;;11.40;3.95;;;;;;;17.33;65.84;99346.78;5006948;28;20077;-70
2022/08/23 00:51:52;;;;;;;11.13;4.75;;;;;;;17.32;66.00;99354.91;5007376;28;20058;-70
2022/08/23 00:54:20;;;;;;;7.65;4.03;;;;;;;17.26;66.03;99356.25;5028437;28;20059;-69
2022/08/23 00:56:47;;;;;;;7.30;3.70;;;;;;;17.22;66.11;99349.50;5049487;28;20048;-69
2022/08/23 00:59:15;;;;;;;8.50;4.03;;;;;;;17.20;65.98;99345.25;5050163;28;20053;-68
2022/08/23 01:01:42;;;;;;;11.73;4.25;;;;;;;17.18;65.90;99350.75;5049149;28;20059;-68
2022/08/23 01:04:12;;;;;;;13.95;4.60;;;;;;;17.15;66.36;99353.63;5049246;28;20044;-68
2022/08/23 01:06:44;;;;;;;8.45;4.20;;;;;;;17.11;66.37;99358.38;5049005;28;20060;-71
2022/08/23 01:09:14;;;;;;;8.55;4.75;;;;;;;17.11;66.24;99366.38;5049370;28;20053;-69
2022/08/23 01:11:45;;;;;;;7.13;4.15;;;;;;;17.08;66.38;99363.97;5049112;28;20044;-68
2022/08/23 01:14:18;;;;;;;9.07;5.00;;;;;;;17.10;66.31;99355.84;5048607;28;20055;-68
2022/08/23 01:16:50;;;;;;;10.00;4.95;;;;;;;17.07;65.89;99361.44;5048132;28;20060;-67
2022/08/23 01:19:24;;;;;;;8.30;4.47;;;;;;;17.05;66.05;99353.56;5048836;28;20635;-68
2022/08/23 01:21:57;;;;;;;8.38;4.40;;;;;;;17.03;65.67;99355.53;5048843;28;20045;-68
2022/08/23 01:24:25;;;;;;;5.45;3.75;;;;;;;17.00;65.92;99360.25;5048763;28;20049;-70
2022/08/23 01:26:52;;;;;;;7.50;3.85;;;;;;;16.95;66.29;99357.97;5047397;28;20681;-70
2022/08/23 01:29:19;;;;;;;6.10;3.58;;;;;;;16.91;66.18;99357.38;5047819;28;20493;-69
2022/08/23 01:31:45;;;;;;;12.70;4.53;;;;;;;16.90;66.57;99362.81;5048533;28;20419;-69
2022/08/23 01:34:16;;;;;;;6.63;3.85;;;;;;;16.89;66.07;99369.13;5048239;28;20056;-69
2022/08/23 01:36:43;;;;;;;13.15;3.92;;;;;;;16.91;65.84;99368.03;5047936;28;20095;-69
2022/08/23 01:39:10;;;;;;;8.05;3.33;;;;;;;16.92;66.18;99364.38;5052218;28;20048;-69
2022/08/23 01:41:38;;;;;;;9.07;3.63;;;;;;;16.95;66.35;99373.94;5052150;28;20051;-69
2022/08/23 01:44:05;;;;;;;5.88;3.90;;;;;;;16.94;66.04;99375.75;5052327;28;20095;-69
2022/08/23 01:46:32;;;;;;;6.72;3.90;;;;;;;16.93;66.22;99373.22;5051097;28;20447;-69
2022/08/23 01:48:59;;;;;;;5.85;3.88;;;;;;;16.87;66.56;99377.22;5052220;28;20040;-69
2022/08/23 01:51:25;;;;;;;6.43;3.83;;;;;;;16.85;66.50;99376.50;5052012;28;20045;-68
2022/08/23 01:53:52;;;;;;;6.68;3.65;;;;;;;16.84;66.92;99380.16;5052017;28;20148;-70
2022/08/23 01:56:20;;;;;;;10.00;4.28;;;;;;;16.84;66.81;99374.00;5051271;28;20477;-69
2022/08/23 01:58:48;;;;;;;6.38;3.88;;;;;;;16.79;67.01;99378.84;5052398;28;20482;-68
2022/08/23 02:01:16;;;;;;;6.88;4.25;;;;;;;16.74;67.23;99376.53;5051717;28;20447;-69
2022/08/23 02:03:43;;;;;;;8.52;4.90;;;;;;;16.70;67.36;99375.06;5051855;28;20057;-69
2022/08/23 02:06:10;;;;;;;8.18;4.72;;;;;;;16.71;67.05;99379.41;5050938;28;20048;-68
2022/08/23 02:11:23;;;;;;;9.88;3.70;;;;;;;16.66;67.33;99381.59;5051695;28;20608;-68
2022/08/23 02:13:52;;;;;;;8.00;4.65;;;;;;;16.58;68.13;99376.91;5051645;28;20580;-69
2022/08/23 02:16:24;;;;;;;9.82;5.22;;;;;;;16.55;67.93;99378.97;5051108;28;20049;-67
2022/08/23 02:18:52;;;;;;;9.85;4.35;;;;;;;16.55;68.17;99376.31;5052283;28;20048;-68
2022/08/23 02:21:19;;;;;;;7.32;4.43;;;;;;;16.45;68.81;99381.53;5052640;28;20049;-68
2022/08/23 02:23:45;;;;;;;8.57;4.85;;;;;;;16.41;68.51;99386.25;5053314;28;20152;-68
2022/08/23 02:26:12;;;;;;;7.30;4.18;;;;;;;16.40;68.78;99384.56;5052396;28;20055;-71
2022/08/23 02:28:39;;;;;;;9.52;5.10;;;;;;;16.40;68.32;99389.03;5053632;28;20055;-68
2022/08/23 02:31:07;;;;;;;10.65;5.28;;;;;;;16.42;68.71;99387.09;5051094;28;20053;-69
2022/08/23 02:33:34;;;;;;;9.25;5.50;;;;;;;16.38;68.56;99383.81;5048594;28;20519;-67
2022/08/23 02:36:00;;;;;;;7.20;4.47;;;;;;;16.37;68.96;99379.50;5030785;28;20068;-68
2022/08/23 02:38:27;;;;;;;9.80;5.03;;;;;;;16.36;68.62;99383.09;5031260;28;20081;-68
2022/08/23 02:40:54;;;;;;;10.65;5.75;;;;;;;16.36;68.72;99377.78;5031294;28;20049;-68
2022/08/23 02:43:20;;;;;;;7.90;4.10;;;;;;;16.37;68.89;99381.31;5031274;28;20053;-67
2022/08/23 02:45:47;;;;;;;8.48;3.88;;;;;;;16.36;68.59;99384.91;5030569;28;20438;-68
2022/08/23 02:48:15;;;;;;;11.23;4.47;;;;;;;16.37;68.58;99382.16;5030656;28;20049;-68
2022/08/23 02:50:41;;;;;;;8.50;4.57;;;;;;;16.38;68.36;99386.50;5046702;28;20059;-68
2022/08/23 02:53:08;;;;;;;10.50;4.60;;;;;;;16.38;68.19;99383.81;5050963;28;20139;-70
2022/08/23 02:55:35;;;;;;;10.93;5.05;;;;;;;16.40;68.46;99379.25;5051032;28;20519;-67
2022/08/23 02:58:04;;;;;;;7.53;3.38;;;;;;;16.43;68.43;99383.47;5050124;28;20419;-67
2022/08/23 03:00:31;;;;;;;7.45;4.35;;;;;;;16.44;68.44;99386.00;5050664;28;20246;-67
2022/08/23 03:02:57;;;;;;;7.20;3.70;;;;;;;16.43;68.42;99381.66;5050667;28;20148;-69
2022/08/23 03:05:25;;;;;;;8.45;4.72;;;;;;;16.42;68.28;99384.44;5050700;28;20149;-68
2022/08/23 03:07:52;;;;;;;10.13;4.45;;;;;;;16.39;68.42;99385.53;5049824;28;20051;-69
2022/08/23 03:10:19;;;;;;;9.38;4.93;;;;;;;16.37;68.42;99384.81;5050537;28;20049;-68
2022/08/23 03:12:45;;;;;;;7.72;5.10;;;;;;;16.36;68.39;99383.09;5050567;28;20044;-68
2022/08/23 03:15:12;;;;;;;11.40;5.40;;;;;;;16.36;68.68;99383.09;5050157;28;20049;-68
2022/08/23 03:17:38;;;;;;;10.73;3.83;;;;;;;16.34;69.05;99381.53;5049675;28;20052;-69
2022/08/23 03:20:06;;;;;;;9.40;4.35;;;;;;;16.33;68.96;99380.69;5050163;28;20474;-68
2022/08/23 03:22:34;;;;;;;11.70;4.90;;;;;;;16.35;69.07;99385.91;5050145;28;20424;-69
2022/08/23 03:25:01;;;;;;;11.32;5.15;;;;;;;16.34;69.07;99384.19;5050431;28;20053;-69
2022/08/23 03:27:30;;;;;;;10.45;5.03;;;;;;;16.27;69.06;99387.34;5049138;28;20516;-69
2022/08/23 03:29:57;;;;;;;10.27;4.70;;;;;;;16.26;69.09;99395.44;5050010;28;20673;-68
2022/08/23 03:32:23;;;;;;;10.07;5.53;;;;;;;16.26;69.34;99396.28;5049970;28;20055;-69
2022/08/23 03:34:50;;;;;;;6.38;4.55;;;;;;;16.28;69.19;99389.03;5049878;28;20052;-69
2022/08/23 03:37:16;;;;;;;10.93;4.47;;;;;;;16.25;69.67;99399.94;5049276;28;20045;-69
2022/08/23 03:39:44;;;;;;;7.65;3.75;;;;;;;16.22;69.53;99402.84;5049980;28;20041;-69
2022/08/23 03:42:11;;;;;;;18.02;4.55;;;;;;;16.24;69.91;99408.88;5049984;28;20055;-70
2022/08/23 03:44:38;;;;;;;6.65;4.82;;;;;;;16.25;70.04;99410.56;5050024;28;20500;-69
2022/08/23 03:47:05;;;;;;;7.18;4.35;;;;;;;16.29;69.65;99419.13;5048973;28;20048;-69
2022/08/23 03:49:32;;;;;;;9.13;4.45;;;;;;;16.33;69.98;99409.97;5049948;28;20523;-70
2022/08/23 03:51:59;;;;;;;12.73;4.40;;;;;;;16.36;69.50;99414.19;5049923;28;20048;-69
2022/08/23 03:54:26;;;;;;;9.10;4.47;;;;;;;16.36;69.96;99417.69;5049451;28;20044;-70
2022/08/23 03:56:59;;;;;;;5.65;4.22;;;;;;;16.38;70.20;99425.56;5049066;28;20096;-70
2022/08/23 03:59:26;;;;;;;8.63;4.28;;;;;;;16.37;69.85;99419.41;5049769;28;20044;-67
2022/08/23 04:01:53;;;;;;;7.63;3.58;;;;;;;16.43;69.92;99428.69;5048745;28;20417;-67
2022/08/23 04:04:20;;;;;;;6.85;3.70;;;;;;;16.46;69.93;99431.09;5049606;28;20061;-67
2022/08/23 04:06:47;;;;;;;5.78;4.10;;;;;;;16.50;69.83;99433.41;5048813;28;20044;-68
2022/08/23 04:09:15;;;;;;;6.90;4.25;;;;;;;16.53;69.39;99433.16;5049434;28;20053;-68
2022/08/23 04:11:42;;;;;;;8.68;4.43;;;;;;;16.49;69.64;99431.72;5049762;28;20056;-67
2022/08/23 04:14:12;;;;;;;8.88;4.55;;;;;;;16.47;69.70;99428.34;5049795;28;20055;-66
2022/08/23 04:16:39;;;;;;;10.20;4.68;;;;;;;16.45;70.03;99437.41;5046725;28;20523;-67
2022/08/23 04:19:06;;;;;;;6.82;4.40;;;;;;;16.40;70.05;99432.44;5044130;28;20528;-68
2022/08/23 04:21:35;;;;;;;10.27;4.05;;;;;;;16.40;70.69;99440.44;5029521;28;20140;-68
2022/08/23 04:24:01;;;;;;;12.93;5.03;;;;;;;16.37;70.36;99446.00;5045604;28;20055;-69
2022/08/23 04:26:28;;;;;;;7.65;4.10;;;;;;;16.39;70.59;99449.41;5049178;28;20412;-68
2022/08/23 04:28:54;;;;;;;11.35;3.92;;;;;;;16.38;71.08;99446.84;5052052;28;20065;-67
2022/08/23 04:31:25;;;;;;;7.57;4.03;;;;;;;16.38;70.77;99445.03;5049268;28;20045;-69
2022/08/23 04:33:52;;;;;;;7.20;4.00;;;;;;;16.41;70.91;99444.78;5048995;28;20099;-67
2022/08/23 04:36:19;;;;;;;8.88;4.50;;;;;;;16.43;71.01;99448.16;5048360;28;20527;-68
2022/08/23 04:38:45;;;;;;;8.80;4.32;;;;;;;16.48;70.73;99451.31;5049001;28;20045;-68
2022/08/23 04:43:56;;;;;;;5.43;3.55;;;;;;;16.52;70.41;99450.09;5051548;28;20055;-69
2022/08/23 04:46:24;;;;;;;5.80;4.50;;;;;;;16.53;70.77;99449.13;5048063;28;20484;-67
2022/08/23 04:48:52;;;;;;;9.50;3.85;;;;;;;16.57;70.62;99454.22;5048539;28;20045;-66
2022/08/23 04:51:21;;;;;;;8.13;4.32;;;;;;;16.63;70.31;99454.56;5048941;28;20110;-68
2022/08/23 04:53:47;;;;;;;7.88;4.10;;;;;;;16.66;70.28;99459.66;5049033;28;20132;-66
2022/08/23 04:56:14;;;;;;;10.00;5.03;;;;;;;16.72;70.09;99463.63;5048790;28;20482;-67
2022/08/23 04:58:41;;;;;;;10.27;4.43;;;;;;;16.77;70.28;99457.97;5049224;28;20045;-67
2022/08/23 05:01:10;;;;;;;16.83;5.18;;;;;;;16.82;70.21;99466.44;5049002;28;20573;-68
2022/08/23 05:03:38;;;;;;;8.20;4.65;;;;;;;16.82;69.99;99467.28;5048656;28;20099;-68
2022/08/23 05:06:05;;;;;;;13.95;4.47;;;;;;;16.87;69.92;99467.75;5048156;28;20053;-70
2022/08/23 05:08:33;;;;;;;14.55;5.35;;;;;;;16.90;70.11;99467.50;5048822;28;20132;-69
2022/08/23 05:11:01;;;;;;;19.10;6.85;;;;;;;16.92;69.99;99470.06;5048904;28;20044;-68
2022/08/23 05:13:28;;;;;;;23.52;7.03;;;;;;;17.00;69.77;99480.09;5051410;28;20053;-68
2022/08/23 05:15:54;;;;;;;15.73;6.40;;;;;;;17.06;69.53;99482.28;5032354;28;20104;-70
2022/08/23 05:18:21;;;;;;;10.60;4.53;;;;;;;17.16;69.76;99486.72;5032489;28;20162;-69
2022/08/23 05:20:50;;;;;;;9.35;4.25;;;;;;;17.23;69.48;99486.19;5052807;28;20070;-68
2022/08/23 05:23:16;;;;;;;8.20;4.18;;;;;;;17.27;69.54;99493.81;5052781;28;20099;-69
2022/08/23 05:25:52;;;;;;;7.93;3.83;;;;;;;17.32;69.36;99486.28;5052181;28;20396;-69
2022/08/23 05:28:19;;;;;;;;;;;;;;;17.37;69.33;99494.75;5052458;28;20134;-70
2022/08/23 05:30:54;;;;;;;16.85;5.30;;;;;;;17.44;69.31;99491.59;5052155;28;19925;-69
2022/08/23 05:33:21;;;;;;;14.50;5.10;;;;;;;17.51;68.64;99498.97;5051799;28;20045;-69
2022/08/23 05:35:49;;;;;;;10.82;5.20;;;;;;;17.61;68.44;99507.03;5051796;28;20049;-68
2022/08/23 05:38:15;;;;;;;9.68;3.53;;;;;;;17.68;68.71;99508.22;5052051;28;20496;-68
2022/08/23 05:40:42;;;;;;;8.13;3.97;;;;;;;17.73;68.22;99508.69;5052223;28;20052;-68
2022/08/23 05:43:09;;;;;;;6.15;4.10;;;;;;;17.87;68.16;99512.91;5052011;28;20065;-69
2022/08/23 05:45:36;;;;;;;13.10;4.68;;;;;;;17.97;67.59;99516.50;5051836;28;20419;-70
2022/08/23 05:48:03;;;;;;;8.80;3.97;;;;;;;18.06;67.92;99508.66;5050999;28;20053;-69
2022/08/23 05:50:29;;;;;;;11.27;5.63;;;;;;;18.20;67.50;99513.69;5052044;28;20539;-70
2022/08/23 05:52:57;;;;;;;35.72;7.38;;;;;;;18.35;67.39;99514.19;5051913;28;20056;-70
2022/08/23 05:55:23;;;;;;;20.17;6.68;;;;;;;18.48;67.08;99522.81;5051963;28;20167;-69
2022/08/23 05:57:50;;;;;;;16.75;4.50;;;;;;;18.60;66.99;99519.09;5051422;28;20075;-70
2022/08/23 06:00:17;;;;;;;12.27;3.92;;;;;;;18.77;66.37;99525.66;5052311;28;20052;-70
2022/08/23 06:02:43;;;;;;;11.65;4.40;;;;;;;18.98;66.05;99519.44;5052109;28;20076;-70
2022/08/23 06:05:10;;;;;;;9.38;2.85;;;;;;;19.19;65.55;99524.69;5052194;28;20057;-69
2022/08/23 06:07:37;;;;;;;8.07;3.33;;;;;;;19.35;64.27;99516.16;5051436;28;20037;-67
2022/08/23 06:10:06;;;;;;;14.93;4.97;;;;;;;19.51;64.00;99525.28;5052447;28;20059;-70
2022/08/23 06:12:33;;;;;;;8.25;3.95;;;;;;;19.68;63.99;99520.28;5052111;28;20397;-68
2022/08/23 06:15:00;;;;;;;8.32;4.40;;;;;;;19.87;62.69;99530.13;5052225;28;20091;-68
2022/08/23 06:17:27;;;;;;;12.52;4.53;;;;;;;20.05;62.32;99528.41;5050977;28;20071;-70
2022/08/23 06:19:53;;;;;;;10.02;4.50;;;;;;;20.21;62.44;99527.00;5051525;28;20049;-68
2022/08/23 06:22:20;;;;;;;10.30;2.92;;;;;;;20.35;60.21;99538.13;5054153;28;20056;-69
2022/08/23 06:24:47;;;;;;;8.63;3.25;;;;;;;20.50;59.57;99534.94;5050533;28;20055;-69
2022/08/23 06:27:15;;;;;;;7.00;3.20;;;;;;;20.66;59.37;99535.22;5050465;28;20048;-67
2022/08/23 06:29:42;;;;;;;12.90;3.85;;;;;;;20.78;58.52;99539.41;5050957;28;20045;-69
2022/08/23 06:32:09;;;;;;;8.02;3.92;;;;;;;20.86;57.60;99537.84;5051247;28;20075;-69
2022/08/23 06:34:37;;;;;;;11.80;3.70;;;;;;;20.94;57.55;99540.59;5051334;28;20045;-70
2022/08/23 06:37:06;;;;;;;9.30;3.70;;;;;;;20.98;57.27;99540.16;5051089;28;20049;-69
2022/08/23 06:39:33;;;;;;;7.85;3.55;;;;;;;21.05;57.26;99542.28;5051898;28;20045;-70
2022/08/23 06:42:03;;;;;;;8.82;4.57;;;;;;;21.10;56.83;99540.81;5055102;28;20051;-70
2022/08/23 06:44:31;;;;;;;5.43;3.00;;;;;;;21.17;56.60;99543.75;5053285;28;20045;-69
2022/08/23 06:46:58;;;;;;;6.50;3.30;;;;;;;21.19;56.34;99542.63;5052043;28;20052;-68
2022/08/23 06:49:26;;;;;;;8.88;3.28;;;;;;;21.18;55.95;99535.53;5051957;28;20052;-68
2022/08/23 06:51:55;;;;;;;6.07;3.33;;;;;;;21.22;56.25;99538.78;5051552;28;20048;-68
2022/08/23 06:54:25;;;;;;;13.23;4.10;;;;;;;21.28;56.14;99540.84;5051476;28;20045;-68
2022/08/23 06:56:52;;;;;;;8.27;3.42;;;;;;;21.33;55.87;99541.25;5050971;28;20065;-68
2022/08/23 06:59:20;;;;;;;6.70;2.83;;;;;;;21.40;55.69;99541.53;5051303;28;20053;-69
2022/08/23 07:01:50;;;;;;;10.05;3.95;;;;;;;21.50;55.66;99536.94;5051176;28;20056;-70
2022/08/23 07:04:19;;;;;;;10.00;4.40;;;;;;;21.60;55.65;99543.06;5051000;28;20053;-69
2022/08/23 07:06:46;;;;;;;9.73;3.88;;;;;;;21.69;54.99;99544.00;5050212;28;20143;-68
2022/08/23 07:09:13;;;;;;;10.18;3.42;;;;;;;21.76;55.06;99547.78;5050674;28;20067;-69
2022/08/23 07:11:40;;;;;;;7.78;3.50;;;;;;;21.96;57.33;99542.25;5050955;28;20469;-54
2022/08/23 07:14:10;;;;;;;8.73;3.60;;;;;;;22.21;55.10;99546.84;5051754;28;20107;-58
2022/08/23 07:16:40;;;;;;;9.73;3.63;;;;;;;22.38;54.70;99545.13;5050193;28;20099;-53
2022/08/23 07:19:09;;;;;;;7.18;3.17;;;;;;;22.55;53.59;99540.69;5051273;28;20049;-53
2022/08/23 07:21:37;;;;;;;9.82;3.03;;;;;;;22.68;53.21;99541.09;5052437;28;20049;-54
2022/08/23 07:24:04;;;;;;;11.75;4.07;;;;;;;22.87;52.78;99542.72;5054862;28;20048;-56
2022/08/23 07:26:31;;;;;;;8.73;3.95;;;;;;;23.09;52.27;99549.41;5051890;28;20116;-58
2022/08/23 07:28:58;;;;;;;11.55;4.70;;;;;;;23.23;51.64;99553.31;5050733;28;20059;-55
2022/08/23 07:31:29;;;;;;;13.55;3.83;;;;;;;23.35;51.58;99541.22;5050635;28;20073;-57
2022/08/23 07:33:58;;;;;;;10.57;3.95;;;;;;;23.47;52.28;99541.78;5051043;28;20060;-56
2022/08/23 07:36:27;;;;;;;12.90;4.70;;;;;;;23.60;52.34;99543.16;5049815;28;20566;-53
2022/08/23 07:38:54;;;;;;;9.93;4.40;;;;;;;23.71;51.57;99557.13;5051246;28;20041;-54
2022/08/23 07:41:23;;;;;;;9.90;3.95;;;;;;;23.78;49.75;99552.81;5049852;28;20492;-62
2022/08/23 07:43:50;;;;;;;10.20;3.53;;;;;;;23.75;50.46;99553.16;5049863;28;20067;-60
2022/08/23 07:46:17;;;;;;;6.40;3.15;;;;;;;23.73;49.87;99557.84;5049129;28;20053;-61
2022/08/23 07:48:44;;;;;;;8.00;3.53;;;;;;;23.86;49.90;99560.06;5049805;28;20159;-60
2022/08/23 07:51:13;;;;;;;8.32;3.88;;;;;;;23.98;49.47;99560.56;5049907;28;20055;-60
2022/08/23 07:53:41;;;;;;;8.63;3.33;;;;;;;24.23;48.77;99560.56;5050092;28;20051;-63
2022/08/23 07:56:10;;;;;;;14.05;4.18;;;;;;;24.42;48.00;99565.63;5049190;28;20049;-56
2022/08/23 07:58:36;;;;;;;9.75;4.05;;;;;;;24.50;47.98;99562.94;5050148;28;20053;-59
2022/08/23 08:01:14;;;;;;;7.25;3.83;;;;;;;24.62;47.97;99563.41;5050117;28;20049;-64
2022/08/23 08:03:42;;;;;;;11.98;3.65;;;;;;;24.75;47.24;99561.03;5049805;28;20057;-62
2022/08/23 08:06:11;;;;;;;9.05;3.90;;;;;;;24.84;46.70;99564.53;5049243;28;20447;-58
2022/08/23 08:08:39;;;;;;;11.57;5.20;;;;;;;24.93;46.88;99568.03;5049099;28;20049;-60
2022/08/23 08:11:09;;;;;;;10.52;2.88;;;;;;;25.03;46.29;99574.06;5049115;28;20079;-59
2022/08/23 08:13:37;;;;;;;6.75;3.45;;;;;;;25.18;45.34;99576.91;5049487;28;20064;-58
2022/08/23 08:16:04;;;;;;;9.02;4.65;;;;;;;25.21;45.76;99574.72;5048484;28;20049;-60
2022/08/23 08:18:31;;;;;;;7.78;3.00;;;;;;;25.29;45.51;99573.84;5048612;28;20064;-54
2022/08/23 08:20:58;;;;;;;8.13;3.75;;;;;;;25.36;45.66;99571.28;5049127;28;20569;-62
2022/08/23 08:23:24;;;;;;;10.23;3.80;;;;;;;25.44;45.83;99573.94;5049098;28;20481;-54
2022/08/23 08:26:00;;;;;;;8.95;3.17;;;;;;;25.45;45.87;99572.94;5048303;28;20406;-60
2022/08/23 08:28:28;;;;;;;7.75;3.03;;;;;;;25.55;45.61;99573.56;5048615;28;20049;-51
2022/08/23 08:30:54;;;;;;;5.78;2.80;;;;;;;25.65;45.29;99576.03;5051645;28;20136;-49
2022/08/23 08:33:21;;;;;;;10.52;4.10;;;;;;;25.65;44.63;99579.56;5046893;28;20044;-71
2022/08/23 08:35:47;;;;;;;13.25;4.25;;;;;;;25.72;44.63;99574.28;5048439;28;20412;-67
2022/08/23 08:38:14;;;;;;;14.30;4.40;;;;;;;25.85;44.21;99573.69;5048089;28;20094;-69
2022/08/23 08:40:42;;;;;;;8.27;2.72;;;;;;;25.94;43.93;99578.03;5048525;28;20060;-69
2022/08/23 08:43:26;;;;;;;8.07;3.20;;;;;;;26.07;43.44;99580.16;5049030;28;20123;-72
2022/08/23 08:46:03;;;;;;;13.73;4.25;;;;;;;26.18;42.94;99577.00;5051163;28;20135;-69
2022/08/23 08:48:39;;;;;;;14.13;4.22;;;;;;;26.25;42.36;99580.66;5047545;28;20045;-69
2022/08/23 08:51:18;;;;;;;9.10;3.13;;;;;;;26.26;42.19;99576.97;5048530;28;20049;-68
2022/08/23 08:53:48;;;;;;;8.80;3.13;;;;;;;26.29;42.58;99576.59;5048963;28;20048;-68
2022/08/23 08:56:20;;;;;;;11.45;4.15;;;;;;;26.39;42.18;99578.19;5048047;28;20045;-68
2022/08/23 08:58:50;;;;;;;11.68;4.47;;;;;;;26.49;42.07;99581.47;5048293;28;20041;-68
2022/08/23 09:01:20;;;;;;;9.32;3.58;;;;;;;26.48;41.90;99577.94;5048495;28;20136;-69
2022/08/23 09:03:47;;;;;;;6.10;3.22;;;;;;;26.54;41.29;99581.81;5048883;28;20059;-70
2022/08/23 09:06:20;;;;;;;6.35;2.72;;;;;;;26.63;41.43;99579.84;5047774;28;20056;-69
2022/08/23 09:09:02;;;;;;;13.70;3.17;;;;;;;26.67;41.41;99581.16;5048165;28;20043;-72
2022/08/23 09:11:44;;;;;;;9.88;2.85;;;;;;;26.75;41.53;99573.81;5048071;28;20056;-69
2022/08/23 09:14:44;;;;;;;16.30;4.07;;;;;;;26.85;41.73;99576.25;5048707;28;20049;-69
2022/08/23 09:17:20;;;;;;;8.25;2.85;;;;;;;27.08;40.21;99581.56;5031593;28;20510;-66
2022/08/23 09:19:50;;;;;;;7.32;3.45;;;;;;;27.32;40.13;99582.28;5048190;28;20052;-68
2022/08/23 09:22:23;;;;;;;12.68;3.63;;;;;;;27.65;39.96;99574.56;5048096;28;20113;-68
2022/08/23 09:24:50;;;;;;;5.35;2.72;;;;;;;28.04;39.02;99576.88;5048131;28;20049;-67
2022/08/23 09:27:16;;;;;;;10.07;3.95;;;;;;;28.78;37.90;99577.50;5046627;28;20057;-69
2022/08/23 09:29:53;;;;;;;8.20;3.25;;;;;;;29.64;35.68;99577.94;5047897;28;20496;-68
2022/08/23 09:32:30;;;;;;;8.05;3.05;;;;;;;30.55;34.01;99571.19;5048017;28;20049;-67
2022/08/23 09:35:07;;;;;;;6.78;3.33;;;;;;;31.60;31.74;99574.69;5032326;28;20041;-69
2022/08/23 09:37:48;;;;;;;8.88;3.17;;;;;;;32.45;30.56;99565.28;5047205;28;20514;-69
2022/08/23 09:40:18;;;;;;;10.10;3.30;;;;;;;33.32;29.30;99568.81;5048215;28;20492;-69
2022/08/23 09:42:46;;;;;;;6.97;3.00;;;;;;;33.78;28.62;99558.34;5047712;28;20105;-69
2022/08/23 09:45:26;;;;;;;7.90;3.05;;;;;;;33.95;28.02;99562.06;5048202;28;20417;-70
2022/08/23 09:47:54;;;;;;;5.72;3.15;;;;;;;34.16;27.79;99566.22;5046875;28;20140;-68
2022/08/23 09:50:26;;;;;;;7.50;3.20;;;;;;;34.56;27.51;99570.19;5047955;28;20660;-70
2022/08/23 09:52:59;;;;;;;6.50;3.13;;;;;;;34.94;27.15;99555.16;5034814;28;20049;-68
2022/08/23 09:55:35;;;;;;;7.10;3.35;;;;;;;35.24;26.85;99564.03;5048126;28;20443;-68
2022/08/23 09:58:04;;;;;;;6.35;2.88;;;;;;;35.48;25.69;99556.56;5046977;28;20052;-69
2022/08/23 10:00:34;;;;;;;7.18;3.28;;;;;;;35.48;25.85;99556.56;5049992;28;20054;-69
2022/08/23 10:03:25;;;;;;;6.63;3.00;;;;;;;35.71;25.82;99557.56;5051366;28;20493;-70
2022/08/23 10:05:54;;;;;;;5.97;2.65;;;;;;;35.88;25.52;99555.69;5051340;28;20053;-68
2022/08/23 10:08:26;;;;;;;15.32;3.95;;;;;;;35.48;26.04;99551.09;5051280;28;20051;-69
2022/08/23 10:10:58;;;;;;;4.43;2.35;;;;;;;35.86;25.70;99557.88;5036445;28;20045;-69
2022/08/23 10:13:25;;;;;;;5.53;3.13;;;;;;;36.03;25.24;99551.56;5051462;28;20053;-71
2022/08/23 10:16:02;;;;;;;8.88;3.13;;;;;;;36.12;25.04;99547.34;5051309;28;20060;-71
2022/08/23 10:18:40;;;;;;;12.50;2.92;;;;;;;36.08;24.89;99546.16;5051289;28;20045;-68
2022/08/23 10:21:25;;;;;;;6.93;2.83;;;;;;;36.17;25.13;99541.94;5051347;28;20056;-69
2022/08/23 10:24:09;;;;;;;9.10;2.88;;;;;;;36.10;24.48;99546.75;5051568;28;20110;-68
2022/08/23 10:26:44;;;;;;;19.65;4.07;;;;;;;36.03;24.39;99544.16;5051091;28;20061;-70
2022/08/23 10:29:36;;;;;;;8.80;2.70;;;;;;;35.87;24.52;99548.56;5051776;28;20079;-69
2022/08/23 10:32:17;;;;;;;5.00;2.53;;;;;;;35.59;24.95;99548.53;5052267;28;20060;-68
2022/08/23 10:35:00;;;;;;;6.82;3.00;;;;;;;35.72;24.92;99553.78;5050490;28;20073;-68
2022/08/23 10:37:53;;;;;;;4.68;2.70;;;;;;;36.10;24.73;99549.50;5050992;28;20053;-68
2022/08/23 10:40:27;;;;;;;8.43;2.70;;;;;;;36.23;24.13;99546.44;5051389;28;20045;-70
2022/08/23 10:43:07;;;;;;;6.28;3.08;;;;;;;36.36;24.23;99549.94;5035310;28;20103;-69
2022/08/23 10:45:36;;;;;;;9.40;2.92;;;;;;;36.20;24.26;99540.63;5051021;28;20493;-69
2022/08/23 10:48:19;;;;;;;5.78;3.10;;;;;;;35.99;24.54;99542.16;5049676;28;20551;-72
2022/08/23 10:50:50;;;;;;;6.50;2.92;;;;;;;35.41;25.24;99535.88;5052189;28;20131;-72
2022/08/23 10:53:19;;;;;;;5.30;2.58;;;;;;;34.79;26.08;99545.53;5050345;28;20063;-67
2022/08/23 10:56:03;;;;;;;5.15;2.22;;;;;;;34.21;26.63;99535.38;5050026;28;20049;-68
2022/08/23 10:58:37;;;;;;;6.85;2.42;;;;;;;33.39;27.91;99535.94;5047309;28;20053;-68
2022/08/23 11:01:04;;;;;;;10.00;2.40;;;;;;;32.69;29.09;99542.63;5048005;28;20029;-68
2022/08/23 11:03:34;;;;;;;5.32;2.40;;;;;;;32.52;29.26;99537.97;5049290;28;20045;-68
2022/08/23 11:06:26;;;;;;;9.40;2.47;;;;;;;32.17;29.83;99531.13;5045939;28;20041;-69
2022/08/23 11:09:01;;;;;;;6.30;2.38;;;;;;;31.82;30.46;99530.72;5048592;28;20055;-67
2022/08/23 11:11:41;;;;;;;7.85;2.80;;;;;;;31.57;30.36;99536.13;5047957;28;20049;-67
2022/08/23 11:14:10;;;;;;;3.78;1.95;;;;;;;31.07;31.35;99531.31;5048036;28;20071;-69
2022/08/23 11:16:41;;;;;;;4.43;2.42;;;;;;;30.71;31.69;99537.25;5048984;28;20080;-71
2022/08/23 11:19:14;;;;;;;5.60;2.20;;;;;;;30.79;31.94;99529.69;5049683;28;20125;-68
2022/08/23 11:21:47;;;;;;;4.60;2.25;;;;;;;30.74;32.04;99540.38;5047074;28;20037;-69
2022/08/23 11:24:33;;;;;;;4.40;2.05;;;;;;;30.62;32.22;99533.06;5049778;28;20055;-69
2022/08/23 11:27:05;;;;;;;6.30;2.50;;;;;;;30.24;33.07;99536.44;5046085;28;20175;-68
2022/08/23 11:29:34;;;;;;;8.93;2.63;;;;;;;30.42;32.59;99536.66;5048436;28;20540;-69
2022/08/23 11:32:22;;;;;;;6.47;2.65;;;;;;;30.51;32.64;99529.94;5047343;28;20047;-68
2022/08/23 11:34:57;;;;;;;8.60;2.58;;;;;;;30.45;32.83;99528.09;5045892;28;20049;-70
2022/08/23 11:37:28;;;;;;;5.32;2.25;;;;;;;30.23;32.87;99515.72;5036792;28;20056;-70
2022/08/23 11:40:06;;;;;;;7.43;2.55;;;;;;;30.01;33.63;99525.97;5050318;28;20045;-68
2022/08/23 11:42:48;;;;;;;5.43;2.22;;;;;;;30.11;33.66;99527.22;5050006;28;20468;-69
2022/08/23 11:45:24;;;;;;;6.68;2.17;;;;;;;30.07;33.01;99522.41;5049832;28;20056;-68
2022/08/23 11:48:05;;;;;;;5.95;2.92;;;;;;;30.13;33.22;99516.16;5048408;28;20479;-69
2022/08/23 11:50:42;;;;;;;5.25;2.40;;;;;;;30.07;33.07;99516.97;5050136;28;20111;-69
2022/08/23 11:53:24;;;;;;;5.47;2.30;;;;;;;30.06;33.27;99516.16;5049543;28;20128;-69
2022/08/23 11:56:16;;;;;;;7.40;2.28;;;;;;;30.08;33.40;99516.78;5049065;28;20144;-69